sensor_id;sensor_type;location;lat;lon;timestamp;temperature;humidity
909;DHT22;441;51.192;6.788;2022-11-11T00:00:17;20.80;93.50
909;DHT22;441;51.192;6.788;2022-11-11T00:02:44;20.80;93.50
909;DHT22;441;51.192;6.788;2022-11-11T00:05:14;20.80;93.50
909;DHT22;441;51.192;6.788;2022-11-11T00:07:41;20.80;93.50
909;DHT22;441;51.192;6.788;2022-11-11T00:10:08;20.80;93.50
909;DHT22;441;51.192;6.788;2022-11-11T00:12:35;20.80;93.50
909;DHT22;441;51.192;6.788;2022-11-11T00:15:02;20.70;93.50
909;DHT22;441;51.192;6.788;2022-11-11T00:17:29;20.70;93.50
909;DHT22;441;51.192;6.788;2022-11-11T00:20:15;20.70;93.50
909;DHT22;441;51.192;6.788;2022-11-11T00:23:00;20.70;93.50
909;DHT22;441;51.192;6.788;2022-11-11T00:25:44;20.70;93.50
909;DHT22;441;51.192;6.788;2022-11-11T00:28:16;20.70;93.50
909;DHT22;441;51.192;6.788;2022-11-11T00:30:42;20.70;93.50
909;DHT22;441;51.192;6.788;2022-11-11T00:33:09;20.70;93.50
909;DHT22;441;51.192;6.788;2022-11-11T00:35:38;20.70;93.80
909;DHT22;441;51.192;6.788;2022-11-11T00:38:19;20.70;93.40
909;DHT22;441;51.192;6.788;2022-11-11T00:41:04;20.70;93.40
909;DHT22;441;51.192;6.788;2022-11-11T00:43:31;20.60;93.40
909;DHT22;441;51.192;6.788;2022-11-11T00:45:58;20.60;93.50
909;DHT22;441;51.192;6.788;2022-11-11T00:48:39;20.60;93.40
909;DHT22;441;51.192;6.788;2022-11-11T00:51:25;20.60;93.40
909;DHT22;441;51.192;6.788;2022-11-11T00:53:52;20.60;93.40
909;DHT22;441;51.192;6.788;2022-11-11T00:56:20;20.60;93.40
909;DHT22;441;51.192;6.788;2022-11-11T00:58:47;20.60;93.50
909;DHT22;441;51.192;6.788;2022-11-11T01:01:14;20.60;93.40
909;DHT22;441;51.192;6.788;2022-11-11T01:03:41;20.60;93.40
909;DHT22;441;51.192;6.788;2022-11-11T01:06:10;20.60;93.40
909;DHT22;441;51.192;6.788;2022-11-11T01:08:39;20.60;93.40
909;DHT22;441;51.192;6.788;2022-11-11T01:11:11;20.60;93.40
909;DHT22;441;51.192;6.788;2022-11-11T01:13:39;20.60;93.40
909;DHT22;441;51.192;6.788;2022-11-11T01:16:09;20.50;93.40
909;DHT22;441;51.192;6.788;2022-11-11T01:18:37;20.50;93.40
909;DHT22;441;51.192;6.788;2022-11-11T01:21:05;20.50;93.50
909;DHT22;441;51.192;6.788;2022-11-11T01:23:35;20.60;93.50
909;DHT22;441;51.192;6.788;2022-11-11T01:26:06;20.60;93.50
909;DHT22;441;51.192;6.788;2022-11-11T01:28:34;20.60;93.50
909;DHT22;441;51.192;6.788;2022-11-11T01:31:03;20.50;93.60
909;DHT22;441;51.192;6.788;2022-11-11T01:33:30;20.50;93.60
909;DHT22;441;51.192;6.788;2022-11-11T01:36:03;20.50;93.50
909;DHT22;441;51.192;6.788;2022-11-11T01:38:30;20.50;93.90
909;DHT22;441;51.192;6.788;2022-11-11T01:40:56;20.50;93.90
909;DHT22;441;51.192;6.788;2022-11-11T01:43:25;20.50;93.50
909;DHT22;441;51.192;6.788;2022-11-11T01:45:55;20.50;93.50
909;DHT22;441;51.192;6.788;2022-11-11T01:48:29;20.50;93.50
909;DHT22;441;51.192;6.788;2022-11-11T01:51:19;20.50;93.50
909;DHT22;441;51.192;6.788;2022-11-11T01:53:54;20.50;93.60
909;DHT22;441;51.192;6.788;2022-11-11T01:56:23;20.50;93.60
909;DHT22;441;51.192;6.788;2022-11-11T01:58:55;20.50;93.60
909;DHT22;441;51.192;6.788;2022-11-11T02:01:23;20.50;93.60
909;DHT22;441;51.192;6.788;2022-11-11T02:03:52;20.40;93.60
909;DHT22;441;51.192;6.788;2022-11-11T02:06:37;20.40;93.60
909;DHT22;441;51.192;6.788;2022-11-11T02:09:05;20.40;93.60
909;DHT22;441;51.192;6.788;2022-11-11T02:11:34;20.40;93.60
909;DHT22;441;51.192;6.788;2022-11-11T02:14:21;20.40;93.60
909;DHT22;441;51.192;6.788;2022-11-11T02:17:07;20.50;93.60
909;DHT22;441;51.192;6.788;2022-11-11T02:19:40;20.40;93.50
909;DHT22;441;51.192;6.788;2022-11-11T02:22:12;20.40;93.50
909;DHT22;441;51.192;6.788;2022-11-11T02:24:41;20.40;93.50
909;DHT22;441;51.192;6.788;2022-11-11T02:27:11;20.40;93.50
909;DHT22;441;51.192;6.788;2022-11-11T02:29:40;20.40;93.50
909;DHT22;441;51.192;6.788;2022-11-11T02:32:08;20.40;93.50
909;DHT22;441;51.192;6.788;2022-11-11T02:34:35;20.40;93.50
909;DHT22;441;51.192;6.788;2022-11-11T02:37:04;20.40;93.40
909;DHT22;441;51.192;6.788;2022-11-11T02:39:34;20.40;93.40
909;DHT22;441;51.192;6.788;2022-11-11T02:42:05;20.40;93.40
909;DHT22;441;51.192;6.788;2022-11-11T02:44:35;20.40;93.50
909;DHT22;441;51.192;6.788;2022-11-11T02:47:03;20.40;93.50
909;DHT22;441;51.192;6.788;2022-11-11T02:49:30;20.40;93.40
909;DHT22;441;51.192;6.788;2022-11-11T02:51:57;20.40;93.50
909;DHT22;441;51.192;6.788;2022-11-11T02:54:24;20.40;93.40
909;DHT22;441;51.192;6.788;2022-11-11T02:56:51;20.40;93.50
909;DHT22;441;51.192;6.788;2022-11-11T02:59:35;20.40;93.40
909;DHT22;441;51.192;6.788;2022-11-11T03:02:02;20.30;93.40
909;DHT22;441;51.192;6.788;2022-11-11T03:04:29;20.40;93.50
909;DHT22;441;51.192;6.788;2022-11-11T03:06:57;20.40;93.50
909;DHT22;441;51.192;6.788;2022-11-11T03:09:25;20.40;93.50
909;DHT22;441;51.192;6.788;2022-11-11T03:11:52;20.40;93.40
909;DHT22;441;51.192;6.788;2022-11-11T03:14:19;20.40;93.40
909;DHT22;441;51.192;6.788;2022-11-11T03:16:47;20.40;93.40
909;DHT22;441;51.192;6.788;2022-11-11T03:19:32;20.40;93.40
909;DHT22;441;51.192;6.788;2022-11-11T03:21:59;20.40;93.40
909;DHT22;441;51.192;6.788;2022-11-11T03:24:25;20.40;93.40
909;DHT22;441;51.192;6.788;2022-11-11T03:27:15;20.40;93.50
909;DHT22;441;51.192;6.788;2022-11-11T03:29:42;20.40;93.50
909;DHT22;441;51.192;6.788;2022-11-11T03:32:10;20.30;93.50
909;DHT22;441;51.192;6.788;2022-11-11T03:34:37;20.40;93.50
909;DHT22;441;51.192;6.788;2022-11-11T03:37:06;20.30;93.40
909;DHT22;441;51.192;6.788;2022-11-11T03:39:51;20.30;93.40
909;DHT22;441;51.192;6.788;2022-11-11T03:42:18;20.30;93.40
909;DHT22;441;51.192;6.788;2022-11-11T03:44:45;20.30;93.50
909;DHT22;441;51.192;6.788;2022-11-11T03:47:14;20.30;93.50
909;DHT22;441;51.192;6.788;2022-11-11T03:49:41;20.30;93.40
909;DHT22;441;51.192;6.788;2022-11-11T03:52:10;20.30;93.40
909;DHT22;441;51.192;6.788;2022-11-11T03:54:38;20.30;93.50
909;DHT22;441;51.192;6.788;2022-11-11T03:57:04;20.30;93.50
909;DHT22;441;51.192;6.788;2022-11-11T03:59:49;20.30;93.40
909;DHT22;441;51.192;6.788;2022-11-11T04:02:17;20.30;93.40
909;DHT22;441;51.192;6.788;2022-11-11T04:05:01;20.30;93.50
909;DHT22;441;51.192;6.788;2022-11-11T04:08:00;20.30;93.50
909;DHT22;441;51.192;6.788;2022-11-11T04:10:45;20.20;93.40
909;DHT22;441;51.192;6.788;2022-11-11T04:13:12;20.20;93.50
909;DHT22;441;51.192;6.788;2022-11-11T04:15:56;20.20;93.40
909;DHT22;441;51.192;6.788;2022-11-11T04:18:34;20.20;93.40
909;DHT22;441;51.192;6.788;2022-11-11T04:21:19;20.20;93.50
909;DHT22;441;51.192;6.788;2022-11-11T04:24:04;20.20;93.40
909;DHT22;441;51.192;6.788;2022-11-11T04:26:56;20.20;93.30
909;DHT22;441;51.192;6.788;2022-11-11T04:29:22;20.20;93.40
909;DHT22;441;51.192;6.788;2022-11-11T04:31:57;20.20;93.40
909;DHT22;441;51.192;6.788;2022-11-11T04:34:44;20.20;93.30
909;DHT22;441;51.192;6.788;2022-11-11T04:37:12;20.20;93.30
909;DHT22;441;51.192;6.788;2022-11-11T04:39:39;20.20;93.60
909;DHT22;441;51.192;6.788;2022-11-11T04:42:24;20.20;93.30
909;DHT22;441;51.192;6.788;2022-11-11T04:44:51;20.20;93.30
909;DHT22;441;51.192;6.788;2022-11-11T04:47:36;20.20;93.30
909;DHT22;441;51.192;6.788;2022-11-11T04:50:05;20.20;93.30
909;DHT22;441;51.192;6.788;2022-11-11T04:52:32;20.20;93.30
909;DHT22;441;51.192;6.788;2022-11-11T04:54:59;20.20;93.40
909;DHT22;441;51.192;6.788;2022-11-11T04:57:45;20.20;93.30
909;DHT22;441;51.192;6.788;2022-11-11T05:00:14;20.20;93.30
909;DHT22;441;51.192;6.788;2022-11-11T05:02:42;20.20;93.30
909;DHT22;441;51.192;6.788;2022-11-11T05:05:29;20.20;93.60
909;DHT22;441;51.192;6.788;2022-11-11T05:08:18;20.30;93.40
909;DHT22;441;51.192;6.788;2022-11-11T05:11:02;20.40;93.30
909;DHT22;441;51.192;6.788;2022-11-11T05:13:29;20.50;93.10
909;DHT22;441;51.192;6.788;2022-11-11T05:16:17;20.50;93.00
909;DHT22;441;51.192;6.788;2022-11-11T05:19:03;20.50;93.10
909;DHT22;441;51.192;6.788;2022-11-11T05:21:50;20.50;93.20
909;DHT22;441;51.192;6.788;2022-11-11T05:24:18;20.50;93.10
909;DHT22;441;51.192;6.788;2022-11-11T05:27:02;20.50;93.20
909;DHT22;441;51.192;6.788;2022-11-11T05:29:29;20.50;93.20
909;DHT22;441;51.192;6.788;2022-11-11T05:31:56;20.50;93.30
909;DHT22;441;51.192;6.788;2022-11-11T05:34:23;20.50;93.30
909;DHT22;441;51.192;6.788;2022-11-11T05:36:52;20.50;93.40
909;DHT22;441;51.192;6.788;2022-11-11T05:39:19;20.50;93.90
909;DHT22;441;51.192;6.788;2022-11-11T05:41:46;20.50;93.90
909;DHT22;441;51.192;6.788;2022-11-11T05:44:13;20.50;97.70
909;DHT22;441;51.192;6.788;2022-11-11T05:46:40;20.60;98.30
909;DHT22;441;51.192;6.788;2022-11-11T05:49:07;20.60;99.20
909;DHT22;441;51.192;6.788;2022-11-11T05:51:43;20.70;98.80
909;DHT22;441;51.192;6.788;2022-11-11T05:54:11;20.80;98.70
909;DHT22;441;51.192;6.788;2022-11-11T05:56:39;20.90;98.20
909;DHT22;441;51.192;6.788;2022-11-11T05:59:07;21.00;98.00
909;DHT22;441;51.192;6.788;2022-11-11T06:01:35;21.00;97.20
909;DHT22;441;51.192;6.788;2022-11-11T06:04:04;21.10;97.90
909;DHT22;441;51.192;6.788;2022-11-11T06:06:31;21.10;97.90
909;DHT22;441;51.192;6.788;2022-11-11T06:08:58;21.10;98.00
909;DHT22;441;51.192;6.788;2022-11-11T06:11:28;21.10;98.40
909;DHT22;441;51.192;6.788;2022-11-11T06:13:58;21.10;98.20
909;DHT22;441;51.192;6.788;2022-11-11T06:16:26;21.20;98.40
909;DHT22;441;51.192;6.788;2022-11-11T06:18:53;21.20;97.90
909;DHT22;441;51.192;6.788;2022-11-11T06:21:20;21.20;97.90
909;DHT22;441;51.192;6.788;2022-11-11T06:23:47;21.30;97.20
909;DHT22;441;51.192;6.788;2022-11-11T06:26:14;21.40;96.70
909;DHT22;441;51.192;6.788;2022-11-11T06:28:44;21.40;96.20
909;DHT22;441;51.192;6.788;2022-11-11T06:31:12;21.40;96.50
909;DHT22;441;51.192;6.788;2022-11-11T06:33:40;21.30;95.90
909;DHT22;441;51.192;6.788;2022-11-11T06:36:09;21.20;93.50
909;DHT22;441;51.192;6.788;2022-11-11T06:38:36;21.20;91.90
909;DHT22;441;51.192;6.788;2022-11-11T06:41:03;21.10;90.60
909;DHT22;441;51.192;6.788;2022-11-11T06:43:30;21.10;88.20
909;DHT22;441;51.192;6.788;2022-11-11T06:45:59;21.10;87.40
909;DHT22;441;51.192;6.788;2022-11-11T06:48:27;21.20;90.10
909;DHT22;441;51.192;6.788;2022-11-11T06:50:57;21.20;90.80
909;DHT22;441;51.192;6.788;2022-11-11T06:53:26;21.30;91.20
909;DHT22;441;51.192;6.788;2022-11-11T06:55:54;21.30;91.40
909;DHT22;441;51.192;6.788;2022-11-11T06:58:21;21.30;91.60
909;DHT22;441;51.192;6.788;2022-11-11T07:00:49;21.30;91.50
909;DHT22;441;51.192;6.788;2022-11-11T07:03:18;21.40;91.60
909;DHT22;441;51.192;6.788;2022-11-11T07:05:46;21.40;91.50
909;DHT22;441;51.192;6.788;2022-11-11T07:08:14;21.50;91.40
909;DHT22;441;51.192;6.788;2022-11-11T07:10:43;21.50;91.40
909;DHT22;441;51.192;6.788;2022-11-11T07:13:11;21.50;91.20
909;DHT22;441;51.192;6.788;2022-11-11T07:15:38;21.50;91.00
909;DHT22;441;51.192;6.788;2022-11-11T07:18:05;21.60;91.70
909;DHT22;441;51.192;6.788;2022-11-11T07:20:34;21.60;91.90
909;DHT22;441;51.192;6.788;2022-11-11T07:23:01;21.60;91.70
909;DHT22;441;51.192;6.788;2022-11-11T07:25:28;21.60;91.40
909;DHT22;441;51.192;6.788;2022-11-11T07:27:55;21.60;91.20
909;DHT22;441;51.192;6.788;2022-11-11T07:30:22;21.60;90.90
909;DHT22;441;51.192;6.788;2022-11-11T07:32:51;21.60;90.80
909;DHT22;441;51.192;6.788;2022-11-11T07:35:19;21.70;90.70
909;DHT22;441;51.192;6.788;2022-11-11T07:37:47;21.70;91.40
909;DHT22;441;51.192;6.788;2022-11-11T07:40:16;21.70;91.30
909;DHT22;441;51.192;6.788;2022-11-11T07:42:43;21.70;91.30
909;DHT22;441;51.192;6.788;2022-11-11T07:45:11;21.70;91.20
909;DHT22;441;51.192;6.788;2022-11-11T07:47:41;21.70;91.30
909;DHT22;441;51.192;6.788;2022-11-11T07:50:09;21.70;91.60
909;DHT22;441;51.192;6.788;2022-11-11T07:52:36;21.70;91.70
909;DHT22;441;51.192;6.788;2022-11-11T07:55:05;21.70;92.00
909;DHT22;441;51.192;6.788;2022-11-11T07:57:33;21.70;92.40
909;DHT22;441;51.192;6.788;2022-11-11T08:00:00;21.70;91.60
909;DHT22;441;51.192;6.788;2022-11-11T08:02:27;21.70;91.30
909;DHT22;441;51.192;6.788;2022-11-11T08:04:54;21.70;91.40
909;DHT22;441;51.192;6.788;2022-11-11T08:07:21;21.70;91.30
909;DHT22;441;51.192;6.788;2022-11-11T08:09:48;21.70;91.10
909;DHT22;441;51.192;6.788;2022-11-11T08:12:17;21.70;90.90
909;DHT22;441;51.192;6.788;2022-11-11T08:15:16;21.70;91.00
909;DHT22;441;51.192;6.788;2022-11-11T08:17:43;21.80;91.40
909;DHT22;441;51.192;6.788;2022-11-11T08:20:11;21.70;89.80
909;DHT22;441;51.192;6.788;2022-11-11T08:22:39;21.70;88.90
909;DHT22;441;51.192;6.788;2022-11-11T08:25:07;21.70;90.80
909;DHT22;441;51.192;6.788;2022-11-11T08:27:36;21.70;91.10
909;DHT22;441;51.192;6.788;2022-11-11T08:30:05;21.60;91.10
909;DHT22;441;51.192;6.788;2022-11-11T08:32:32;21.60;91.30
909;DHT22;441;51.192;6.788;2022-11-11T08:34:59;21.60;90.90
909;DHT22;441;51.192;6.788;2022-11-11T08:37:27;21.60;90.90
909;DHT22;441;51.192;6.788;2022-11-11T08:39:54;21.70;90.80
909;DHT22;441;51.192;6.788;2022-11-11T08:42:21;21.70;90.80
909;DHT22;441;51.192;6.788;2022-11-11T08:44:50;21.70;90.80
909;DHT22;441;51.192;6.788;2022-11-11T08:47:17;21.70;90.80
909;DHT22;441;51.192;6.788;2022-11-11T08:49:44;21.70;90.70
909;DHT22;441;51.192;6.788;2022-11-11T08:52:13;21.60;90.60
909;DHT22;441;51.192;6.788;2022-11-11T08:54:40;21.70;90.70
909;DHT22;441;51.192;6.788;2022-11-11T08:57:07;21.70;90.90
909;DHT22;441;51.192;6.788;2022-11-11T08:59:34;21.70;91.00
909;DHT22;441;51.192;6.788;2022-11-11T09:02:02;21.60;91.40
909;DHT22;441;51.192;6.788;2022-11-11T09:04:29;21.60;91.50
909;DHT22;441;51.192;6.788;2022-11-11T09:06:56;21.60;91.60
909;DHT22;441;51.192;6.788;2022-11-11T09:09:23;21.50;91.50
909;DHT22;441;51.192;6.788;2022-11-11T09:11:50;21.50;91.50
909;DHT22;441;51.192;6.788;2022-11-11T09:14:17;21.50;91.70
909;DHT22;441;51.192;6.788;2022-11-11T09:16:43;21.40;91.50
909;DHT22;441;51.192;6.788;2022-11-11T09:19:12;21.40;91.60
909;DHT22;441;51.192;6.788;2022-11-11T09:21:39;21.30;91.70
909;DHT22;441;51.192;6.788;2022-11-11T09:24:05;21.30;91.90
909;DHT22;441;51.192;6.788;2022-11-11T09:26:32;21.20;91.60
909;DHT22;441;51.192;6.788;2022-11-11T09:28:59;21.20;91.90
909;DHT22;441;51.192;6.788;2022-11-11T09:31:26;21.20;91.60
909;DHT22;441;51.192;6.788;2022-11-11T09:33:53;21.10;91.50
909;DHT22;441;51.192;6.788;2022-11-11T09:36:21;21.10;91.50
909;DHT22;441;51.192;6.788;2022-11-11T09:38:48;21.10;91.60
909;DHT22;441;51.192;6.788;2022-11-11T09:41:20;21.00;91.50
909;DHT22;441;51.192;6.788;2022-11-11T09:43:53;21.00;91.50
909;DHT22;441;51.192;6.788;2022-11-11T09:46:32;21.00;91.50
909;DHT22;441;51.192;6.788;2022-11-11T09:49:23;21.00;91.50
909;DHT22;441;51.192;6.788;2022-11-11T09:51:59;21.00;91.50
909;DHT22;441;51.192;6.788;2022-11-11T09:54:33;20.90;91.50
909;DHT22;441;51.192;6.788;2022-11-11T09:57:04;20.90;91.50
909;DHT22;441;51.192;6.788;2022-11-11T09:59:39;20.90;91.60
909;DHT22;441;51.192;6.788;2022-11-11T10:02:17;20.90;91.60
909;DHT22;441;51.192;6.788;2022-11-11T10:04:51;20.90;91.60
909;DHT22;441;51.192;6.788;2022-11-11T10:07:27;20.90;91.70
909;DHT22;441;51.192;6.788;2022-11-11T10:10:03;20.90;91.70
909;DHT22;441;51.192;6.788;2022-11-11T10:12:35;20.80;91.70
909;DHT22;441;51.192;6.788;2022-11-11T10:15:04;20.80;91.70
909;DHT22;441;51.192;6.788;2022-11-11T10:17:41;20.80;91.70
909;DHT22;441;51.192;6.788;2022-11-11T10:20:17;20.80;91.70
909;DHT22;441;51.192;6.788;2022-11-11T10:22:50;20.80;91.70
909;DHT22;441;51.192;6.788;2022-11-11T10:25:20;20.70;91.70
909;DHT22;441;51.192;6.788;2022-11-11T10:27:51;20.70;91.70
909;DHT22;441;51.192;6.788;2022-11-11T10:30:22;20.70;91.80
909;DHT22;441;51.192;6.788;2022-11-11T10:32:55;20.70;91.80
909;DHT22;441;51.192;6.788;2022-11-11T10:35:24;20.70;91.80
909;DHT22;441;51.192;6.788;2022-11-11T10:38:00;20.70;91.80
909;DHT22;441;51.192;6.788;2022-11-11T10:40:36;20.70;91.90
909;DHT22;441;51.192;6.788;2022-11-11T10:43:15;20.70;91.90
909;DHT22;441;51.192;6.788;2022-11-11T10:45:50;20.60;91.80
909;DHT22;441;51.192;6.788;2022-11-11T10:48:21;20.60;91.80
909;DHT22;441;51.192;6.788;2022-11-11T10:50:52;20.60;91.80
909;DHT22;441;51.192;6.788;2022-11-11T10:53:31;20.60;91.80
909;DHT22;441;51.192;6.788;2022-11-11T10:56:05;20.60;91.80
909;DHT22;441;51.192;6.788;2022-11-11T10:58:39;20.60;91.90
909;DHT22;441;51.192;6.788;2022-11-11T11:01:10;20.60;91.90
909;DHT22;441;51.192;6.788;2022-11-11T11:03:42;20.60;91.90
909;DHT22;441;51.192;6.788;2022-11-11T11:06:14;20.50;91.90
909;DHT22;441;51.192;6.788;2022-11-11T11:08:45;20.50;91.90
909;DHT22;441;51.192;6.788;2022-11-11T11:11:18;20.60;91.90
909;DHT22;441;51.192;6.788;2022-11-11T11:13:49;20.50;91.90
909;DHT22;441;51.192;6.788;2022-11-11T11:16:21;20.50;91.90
909;DHT22;441;51.192;6.788;2022-11-11T11:21:49;20.50;91.90
909;DHT22;441;51.192;6.788;2022-11-11T11:24:23;20.50;91.90
909;DHT22;441;51.192;6.788;2022-11-11T11:26:52;20.50;91.90
909;DHT22;441;51.192;6.788;2022-11-11T11:29:31;20.50;91.90
909;DHT22;441;51.192;6.788;2022-11-11T11:32:13;20.50;91.90
909;DHT22;441;51.192;6.788;2022-11-11T11:34:46;20.50;92.20
909;DHT22;441;51.192;6.788;2022-11-11T11:37:14;20.50;91.80
909;DHT22;441;51.192;6.788;2022-11-11T11:39:42;20.50;91.80
909;DHT22;441;51.192;6.788;2022-11-11T11:42:26;20.50;91.80
909;DHT22;441;51.192;6.788;2022-11-11T11:44:54;20.50;91.80
909;DHT22;441;51.192;6.788;2022-11-11T11:47:36;20.50;91.70
909;DHT22;441;51.192;6.788;2022-11-11T11:50:25;20.50;91.70
909;DHT22;441;51.192;6.788;2022-11-11T11:53:04;20.50;91.70
909;DHT22;441;51.192;6.788;2022-11-11T11:55:37;20.60;91.70
909;DHT22;441;51.192;6.788;2022-11-11T11:58:29;20.60;91.70
909;DHT22;441;51.192;6.788;2022-11-11T12:01:03;20.60;91.70
909;DHT22;441;51.192;6.788;2022-11-11T12:03:48;20.60;91.70
909;DHT22;441;51.192;6.788;2022-11-11T12:06:28;20.60;91.60
909;DHT22;441;51.192;6.788;2022-11-11T12:09:08;20.60;91.60
909;DHT22;441;51.192;6.788;2022-11-11T12:11:50;20.60;91.60
909;DHT22;441;51.192;6.788;2022-11-11T12:14:52;20.60;91.50
909;DHT22;441;51.192;6.788;2022-11-11T12:17:30;20.60;91.50
909;DHT22;441;51.192;6.788;2022-11-11T12:20:07;20.60;91.40
909;DHT22;441;51.192;6.788;2022-11-11T12:22:46;20.60;91.40
909;DHT22;441;51.192;6.788;2022-11-11T12:25:26;20.60;91.40
909;DHT22;441;51.192;6.788;2022-11-11T12:28:03;20.60;91.40
909;DHT22;441;51.192;6.788;2022-11-11T12:30:39;20.60;91.30
909;DHT22;441;51.192;6.788;2022-11-11T12:36:11;20.60;91.30
909;DHT22;441;51.192;6.788;2022-11-11T12:38:57;20.60;91.30
909;DHT22;441;51.192;6.788;2022-11-11T12:41:40;20.60;91.30
909;DHT22;441;51.192;6.788;2022-11-11T12:44:12;20.60;91.30
909;DHT22;441;51.192;6.788;2022-11-11T12:46:49;20.60;91.30
909;DHT22;441;51.192;6.788;2022-11-11T12:49:39;20.60;91.30
909;DHT22;441;51.192;6.788;2022-11-11T12:52:18;20.60;91.30
909;DHT22;441;51.192;6.788;2022-11-11T12:54:55;20.60;91.30
909;DHT22;441;51.192;6.788;2022-11-11T12:57:33;20.60;91.30
909;DHT22;441;51.192;6.788;2022-11-11T13:00:10;20.60;91.30
909;DHT22;441;51.192;6.788;2022-11-11T13:02:53;20.60;91.30
909;DHT22;441;51.192;6.788;2022-11-11T13:05:28;20.70;91.30
909;DHT22;441;51.192;6.788;2022-11-11T13:08:19;20.70;91.30
909;DHT22;441;51.192;6.788;2022-11-11T13:10:53;20.70;91.30
909;DHT22;441;51.192;6.788;2022-11-11T13:13:44;20.70;91.30
909;DHT22;441;51.192;6.788;2022-11-11T13:16:21;20.70;91.30
909;DHT22;441;51.192;6.788;2022-11-11T13:18:52;20.60;91.20
909;DHT22;441;51.192;6.788;2022-11-11T13:21:23;20.70;91.30
909;DHT22;441;51.192;6.788;2022-11-11T13:23:51;20.70;91.20
909;DHT22;441;51.192;6.788;2022-11-11T13:26:29;20.70;91.20
909;DHT22;441;51.192;6.788;2022-11-11T13:29:13;20.70;91.50
909;DHT22;441;51.192;6.788;2022-11-11T13:31:46;20.70;91.20
909;DHT22;441;51.192;6.788;2022-11-11T13:34:15;20.70;91.10
909;DHT22;441;51.192;6.788;2022-11-11T13:36:45;20.70;91.10
909;DHT22;441;51.192;6.788;2022-11-11T13:39:25;20.70;91.00
909;DHT22;441;51.192;6.788;2022-11-11T13:41:55;20.70;91.00
909;DHT22;441;51.192;6.788;2022-11-11T13:44:26;20.80;91.00
909;DHT22;441;51.192;6.788;2022-11-11T13:47:01;20.80;91.00
909;DHT22;441;51.192;6.788;2022-11-11T13:49:33;20.80;91.00
909;DHT22;441;51.192;6.788;2022-11-11T13:52:03;20.80;90.90
909;DHT22;441;51.192;6.788;2022-11-11T13:54:33;20.80;90.90
909;DHT22;441;51.192;6.788;2022-11-11T13:57:04;20.80;90.90
909;DHT22;441;51.192;6.788;2022-11-11T13:59:36;20.80;90.90
909;DHT22;441;51.192;6.788;2022-11-11T14:02:27;20.80;90.80
909;DHT22;441;51.192;6.788;2022-11-11T14:07:58;20.80;90.80
909;DHT22;441;51.192;6.788;2022-11-11T14:10:49;20.80;90.90
909;DHT22;441;51.192;6.788;2022-11-11T14:13:36;20.80;90.90
909;DHT22;441;51.192;6.788;2022-11-11T14:16:03;20.80;91.00
909;DHT22;441;51.192;6.788;2022-11-11T14:18:43;20.80;91.00
909;DHT22;441;51.192;6.788;2022-11-11T14:24:25;20.80;91.10
909;DHT22;441;51.192;6.788;2022-11-11T14:26:59;20.80;91.20
909;DHT22;441;51.192;6.788;2022-11-11T14:29:30;20.90;91.20
909;DHT22;441;51.192;6.788;2022-11-11T14:32:35;20.90;91.10
909;DHT22;441;51.192;6.788;2022-11-11T14:35:18;20.90;91.00
909;DHT22;441;51.192;6.788;2022-11-11T14:40:37;21.00;90.80
909;DHT22;441;51.192;6.788;2022-11-11T14:43:32;21.10;90.90
909;DHT22;441;51.192;6.788;2022-11-11T14:46:04;21.20;90.90
909;DHT22;441;51.192;6.788;2022-11-11T14:48:55;21.20;90.60
909;DHT22;441;51.192;6.788;2022-11-11T14:51:47;21.20;90.70
909;DHT22;441;51.192;6.788;2022-11-11T14:54:23;21.30;90.70
909;DHT22;441;51.192;6.788;2022-11-11T14:56:58;21.40;90.60
909;DHT22;441;51.192;6.788;2022-11-11T14:59:26;21.40;90.50
909;DHT22;441;51.192;6.788;2022-11-11T15:01:54;21.50;90.70
909;DHT22;441;51.192;6.788;2022-11-11T15:04:23;21.50;90.40
909;DHT22;441;51.192;6.788;2022-11-11T15:06:57;21.60;90.30
909;DHT22;441;51.192;6.788;2022-11-11T15:09:42;21.70;90.20
909;DHT22;441;51.192;6.788;2022-11-11T15:12:18;21.70;90.00
909;DHT22;441;51.192;6.788;2022-11-11T15:14:53;21.70;88.90
909;DHT22;441;51.192;6.788;2022-11-11T15:17:30;21.70;88.40
909;DHT22;441;51.192;6.788;2022-11-11T15:20:14;21.70;88.60
909;DHT22;441;51.192;6.788;2022-11-11T15:22:54;21.70;88.30
909;DHT22;441;51.192;6.788;2022-11-11T15:25:48;21.70;89.30
909;DHT22;441;51.192;6.788;2022-11-11T15:28:33;21.70;89.40
909;DHT22;441;51.192;6.788;2022-11-11T15:31:08;21.80;89.50
909;DHT22;441;51.192;6.788;2022-11-11T15:33:49;21.80;89.40
909;DHT22;441;51.192;6.788;2022-11-11T15:36:29;21.80;89.50
909;DHT22;441;51.192;6.788;2022-11-11T15:39:04;21.80;90.60
909;DHT22;441;51.192;6.788;2022-11-11T15:41:36;21.80;90.20
909;DHT22;441;51.192;6.788;2022-11-11T15:44:08;21.90;90.20
909;DHT22;441;51.192;6.788;2022-11-11T15:46:40;21.80;89.20
909;DHT22;441;51.192;6.788;2022-11-11T15:49:12;21.80;89.60
909;DHT22;441;51.192;6.788;2022-11-11T15:51:39;21.80;88.80
909;DHT22;441;51.192;6.788;2022-11-11T15:54:25;21.80;88.40
909;DHT22;441;51.192;6.788;2022-11-11T15:56:53;21.80;88.10
909;DHT22;441;51.192;6.788;2022-11-11T15:59:22;21.80;88.10
909;DHT22;441;51.192;6.788;2022-11-11T16:01:50;21.90;88.20
909;DHT22;441;51.192;6.788;2022-11-11T16:04:19;21.90;87.80
909;DHT22;441;51.192;6.788;2022-11-11T16:06:48;21.80;87.30
909;DHT22;441;51.192;6.788;2022-11-11T16:09:20;21.80;88.60
909;DHT22;441;51.192;6.788;2022-11-11T16:11:52;21.80;88.70
909;DHT22;441;51.192;6.788;2022-11-11T16:14:24;21.80;88.70
909;DHT22;441;51.192;6.788;2022-11-11T16:16:53;21.80;88.70
909;DHT22;441;51.192;6.788;2022-11-11T16:19:28;21.70;88.60
909;DHT22;441;51.192;6.788;2022-11-11T16:22:01;21.70;88.70
909;DHT22;441;51.192;6.788;2022-11-11T16:24:31;21.70;88.80
909;DHT22;441;51.192;6.788;2022-11-11T16:27:00;21.70;88.90
909;DHT22;441;51.192;6.788;2022-11-11T16:29:32;21.70;89.10
909;DHT22;441;51.192;6.788;2022-11-11T16:32:00;21.60;89.10
909;DHT22;441;51.192;6.788;2022-11-11T16:34:42;21.60;89.20
909;DHT22;441;51.192;6.788;2022-11-11T16:37:11;21.60;89.30
909;DHT22;441;51.192;6.788;2022-11-11T16:39:40;21.50;89.30
909;DHT22;441;51.192;6.788;2022-11-11T16:42:18;21.50;89.50
909;DHT22;441;51.192;6.788;2022-11-11T16:44:50;21.50;90.10
909;DHT22;441;51.192;6.788;2022-11-11T16:47:45;21.50;90.20
909;DHT22;441;51.192;6.788;2022-11-11T16:50:16;21.40;89.80
909;DHT22;441;51.192;6.788;2022-11-11T16:52:47;21.40;89.80
909;DHT22;441;51.192;6.788;2022-11-11T16:55:20;21.40;90.00
909;DHT22;441;51.192;6.788;2022-11-11T16:57:49;21.40;89.80
909;DHT22;441;51.192;6.788;2022-11-11T17:00:18;21.30;89.20
909;DHT22;441;51.192;6.788;2022-11-11T17:02:46;21.20;89.50
909;DHT22;441;51.192;6.788;2022-11-11T17:05:14;21.20;90.30
909;DHT22;441;51.192;6.788;2022-11-11T17:07:41;21.10;90.50
909;DHT22;441;51.192;6.788;2022-11-11T17:10:10;21.10;91.40
909;DHT22;441;51.192;6.788;2022-11-11T17:12:38;21.10;91.20
909;DHT22;441;51.192;6.788;2022-11-11T17:15:10;21.10;91.40
909;DHT22;441;51.192;6.788;2022-11-11T17:17:38;21.20;91.40
909;DHT22;441;51.192;6.788;2022-11-11T17:20:07;21.20;91.20
909;DHT22;441;51.192;6.788;2022-11-11T17:22:34;21.30;91.00
909;DHT22;441;51.192;6.788;2022-11-11T17:25:02;21.30;91.00